createdAt,value
2018-07-19T00:01:23.363Z,6.53
2018-07-19T00:03:51.668Z,10.87
2018-07-19T00:06:20.010Z,6.10
2018-07-19T00:08:48.293Z,10.53
2018-07-19T00:11:16.726Z,6.57
2018-07-19T00:13:45.086Z,10.10
2018-07-19T00:16:13.526Z,10.80
2018-07-19T00:18:41.829Z,13.00
2018-07-19T00:21:10.070Z,9.20
2018-07-19T00:23:38.345Z,11.13
2018-07-19T00:26:06.564Z,7.37
2018-07-19T00:28:34.929Z,7.97
2018-07-19T00:31:03.382Z,10.80
2018-07-19T00:33:31.723Z,12.60
2018-07-19T00:35:59.995Z,10.13
2018-07-19T00:38:28.380Z,8.80
2018-07-19T00:40:56.714Z,6.80
2018-07-19T00:43:24.977Z,5.77
2018-07-19T00:45:53.314Z,13.17
2018-07-19T00:48:21.784Z,5.97
2018-07-19T00:50:50.101Z,10.90
2018-07-19T00:53:18.310Z,13.07
2018-07-19T00:55:46.617Z,6.40
2018-07-19T00:58:14.897Z,7.73
2018-07-19T01:00:43.174Z,7.80
2018-07-19T01:03:11.451Z,7.83
2018-07-19T01:05:39.737Z,8.67
2018-07-19T01:08:08.003Z,9.30
2018-07-19T01:10:36.332Z,7.23
2018-07-19T01:13:04.868Z,8.13
2018-07-19T01:15:33.186Z,8.43
2018-07-19T01:18:01.520Z,9.77
2018-07-19T01:20:30.166Z,11.60
2018-07-19T01:22:58.431Z,11.83
2018-07-19T01:25:26.867Z,7.70
2018-07-19T01:27:55.360Z,8.30
2018-07-19T01:30:23.726Z,9.37
2018-07-19T01:32:52.120Z,6.90
2018-07-19T01:35:20.387Z,7.67
2018-07-19T01:37:48.698Z,13.20
2018-07-19T01:40:17.159Z,6.77
2018-07-19T01:42:46.048Z,10.80
2018-07-19T01:45:14.662Z,9.57
2018-07-19T01:47:43.034Z,8.67
2018-07-19T01:50:11.924Z,8.83
2018-07-19T01:52:40.198Z,8.63
2018-07-19T01:55:08.944Z,11.47
2018-07-19T01:57:37.339Z,10.33
2018-07-19T02:00:05.898Z,7.63
2018-07-19T02:02:34.227Z,7.30
2018-07-19T02:05:02.497Z,7.63
2018-07-19T02:07:30.764Z,8.73
2018-07-19T02:09:59.109Z,9.73
2018-07-19T02:12:27.440Z,7.27
2018-07-19T02:14:55.713Z,12.13
2018-07-19T02:17:24.023Z,14.93
2018-07-19T02:19:52.487Z,7.60
2018-07-19T02:22:20.863Z,8.70
2018-07-19T02:24:49.180Z,8.60
2018-07-19T02:27:17.475Z,8.03
2018-07-19T02:29:57.640Z,10.03
2018-07-19T02:32:26.141Z,9.60
2018-07-19T02:34:54.510Z,8.20
2018-07-19T02:37:22.799Z,8.00
2018-07-19T02:39:51.170Z,8.03
2018-07-19T02:42:19.495Z,8.17
2018-07-19T02:44:47.900Z,15.30
2018-07-19T02:47:16.257Z,8.10
2018-07-19T02:49:44.594Z,7.50
2018-07-19T02:52:12.956Z,10.00
2018-07-19T02:54:41.234Z,8.07
2018-07-19T02:57:09.603Z,9.00
2018-07-19T02:59:37.893Z,8.50
2018-07-19T03:02:06.513Z,13.90
2018-07-19T03:04:34.779Z,10.30
2018-07-19T03:07:03.210Z,8.10
2018-07-19T03:09:31.610Z,8.13
2018-07-19T03:12:00.048Z,7.40
2018-07-19T03:14:28.430Z,17.33
2018-07-19T03:16:57.066Z,12.80
2018-07-19T03:19:25.365Z,9.60
2018-07-19T03:21:53.648Z,8.87
2018-07-19T03:24:21.987Z,10.97
2018-07-19T03:26:50.335Z,9.03
2018-07-19T03:29:18.620Z,14.43
2018-07-19T03:31:47.131Z,11.37
2018-07-19T03:34:15.541Z,10.00
2018-07-19T03:36:44.211Z,11.70
2018-07-19T03:39:12.649Z,19.23
2018-07-19T03:41:41.476Z,13.23
2018-07-19T03:44:09.811Z,12.23
2018-07-19T03:46:38.295Z,11.10
2018-07-19T03:49:06.823Z,12.00
2018-07-19T03:51:35.727Z,10.33
2018-07-19T03:54:04.252Z,18.17
2018-07-19T03:56:32.699Z,13.93
2018-07-19T03:59:00.977Z,10.87
2018-07-19T04:01:29.339Z,11.53
2018-07-19T04:03:57.772Z,12.30
2018-07-19T04:06:26.725Z,14.53
2018-07-19T04:08:55.154Z,10.77
2018-07-19T04:11:23.544Z,9.97
2018-07-19T04:13:52.036Z,11.97
2018-07-19T04:16:20.606Z,9.73
2018-07-19T04:18:48.933Z,9.23
2018-07-19T04:21:17.481Z,11.13
2018-07-19T04:23:45.885Z,12.17
2018-07-19T04:26:14.229Z,12.60
2018-07-19T04:28:42.731Z,10.37
2018-07-19T04:31:11.082Z,15.57
2018-07-19T04:33:39.492Z,9.33
2018-07-19T04:36:07.824Z,9.10
2018-07-19T04:38:36.244Z,8.20
2018-07-19T04:41:04.700Z,11.83
2018-07-19T04:43:33.107Z,16.50
2018-07-19T04:46:01.406Z,10.30
2018-07-19T04:48:29.719Z,9.77
2018-07-19T04:50:57.995Z,8.23
2018-07-19T04:53:26.379Z,10.60
2018-07-19T04:55:54.884Z,9.43
2018-07-19T04:58:23.232Z,8.70
2018-07-19T05:00:51.733Z,13.03
2018-07-19T05:03:19.998Z,12.93
2018-07-19T05:05:48.331Z,11.30
2018-07-19T05:08:16.681Z,9.23
2018-07-19T05:10:45.104Z,9.83
2018-07-19T05:13:13.386Z,19.83
2018-07-19T05:15:41.711Z,10.03
2018-07-19T05:18:11.122Z,10.27
2018-07-19T05:20:39.473Z,10.17
2018-07-19T05:23:07.926Z,13.67
2018-07-19T05:25:36.243Z,9.10
2018-07-19T05:28:04.624Z,12.70
2018-07-19T05:30:32.991Z,12.47
2018-07-19T05:33:01.444Z,13.20
2018-07-19T05:35:29.686Z,10.40
2018-07-19T05:37:57.960Z,14.03
2018-07-19T05:40:26.316Z,19.70
2018-07-19T05:42:54.636Z,13.33
2018-07-19T05:45:22.941Z,16.53
2018-07-19T05:47:51.328Z,8.93
2018-07-19T05:50:19.592Z,8.80
2018-07-19T05:52:47.912Z,9.90
2018-07-19T05:55:16.215Z,11.00
2018-07-19T05:57:44.625Z,15.03
2018-07-19T06:00:12.958Z,17.20
2018-07-19T06:02:41.626Z,11.77
2018-07-19T06:05:11.067Z,17.27
2018-07-19T06:07:39.542Z,13.80
2018-07-19T06:10:07.850Z,16.57
2018-07-19T06:12:36.429Z,15.80
2018-07-19T06:15:05.659Z,10.37
2018-07-19T06:17:33.948Z,13.50
2018-07-19T06:20:02.473Z,9.63
2018-07-19T06:22:30.785Z,11.73
2018-07-19T06:24:59.142Z,17.00
2018-07-19T06:27:27.349Z,19.00
2018-07-19T06:29:56.086Z,12.50
2018-07-19T06:32:24.497Z,12.07
2018-07-19T06:34:53.092Z,25.30
2018-07-19T06:37:21.792Z,15.10
2018-07-19T06:39:50.812Z,15.13
2018-07-19T06:42:19.378Z,15.00
2018-07-19T06:44:47.811Z,16.60
2018-07-19T06:47:16.091Z,16.67
2018-07-19T06:49:44.450Z,12.63
2018-07-19T06:52:12.902Z,12.50
2018-07-19T06:54:41.194Z,18.77
2018-07-19T06:57:09.545Z,16.60
2018-07-19T06:59:37.844Z,7.13
2018-07-19T07:02:06.535Z,7.77
2018-07-19T07:04:34.901Z,12.10
2018-07-19T07:07:03.251Z,7.60
2018-07-19T07:09:31.648Z,7.10
2018-07-19T07:11:59.980Z,8.80
2018-07-19T07:14:28.283Z,11.07
2018-07-19T07:16:56.581Z,10.77
2018-07-19T07:19:24.909Z,17.13
2018-07-19T07:21:53.180Z,8.97
2018-07-19T07:24:21.649Z,6.60
2018-07-19T07:26:49.904Z,6.23
2018-07-19T07:29:18.193Z,10.47
2018-07-19T07:31:46.475Z,12.20
2018-07-19T07:34:14.978Z,9.77
2018-07-19T07:36:43.351Z,9.80
2018-07-19T07:39:11.659Z,7.87
2018-07-19T07:41:40.157Z,8.67
2018-07-19T07:44:08.561Z,12.50
2018-07-19T07:46:36.853Z,13.50
2018-07-19T07:49:05.491Z,7.40
2018-07-19T07:51:33.834Z,9.80
2018-07-19T07:54:02.153Z,8.00
2018-07-19T07:56:30.472Z,10.30
2018-07-19T07:58:58.746Z,8.97
2018-07-19T08:01:27.108Z,7.90
2018-07-19T08:03:55.595Z,12.27
2018-07-19T08:06:23.839Z,6.23
2018-07-19T08:08:52.176Z,7.33
2018-07-19T08:11:20.717Z,6.30
2018-07-19T08:13:49.055Z,10.13
2018-07-19T08:16:17.379Z,7.27
2018-07-19T08:18:45.815Z,20.03
2018-07-19T08:21:14.185Z,6.47
2018-07-19T08:23:42.476Z,6.43
2018-07-19T08:26:10.729Z,9.17
2018-07-19T08:28:39.068Z,7.10
2018-07-19T08:31:07.441Z,9.27
2018-07-19T08:33:35.908Z,8.37
2018-07-19T08:36:04.517Z,7.40
2018-07-19T08:38:32.798Z,10.97
2018-07-19T08:41:01.163Z,10.43
2018-07-19T08:43:29.471Z,23.93
2018-07-19T08:45:57.819Z,13.50
2018-07-19T08:48:26.146Z,8.03
2018-07-19T08:50:54.483Z,8.20
2018-07-19T08:53:22.765Z,8.10
2018-07-19T08:55:51.096Z,6.77
2018-07-19T08:58:19.420Z,13.90
2018-07-19T09:00:47.679Z,8.13
2018-07-19T09:03:15.976Z,11.47
2018-07-19T09:05:44.306Z,12.77
2018-07-19T09:08:12.751Z,21.03
2018-07-19T09:10:41.092Z,22.77
2018-07-19T09:13:09.378Z,13.60
2018-07-19T09:15:37.641Z,14.90
2018-07-19T09:18:06.152Z,11.80
2018-07-19T09:20:34.486Z,6.17
2018-07-19T09:23:03.595Z,25.47
2018-07-19T09:25:31.982Z,23.60
2018-07-19T09:28:00.260Z,6.07
2018-07-19T09:30:28.515Z,7.53
2018-07-19T09:32:56.764Z,9.17
2018-07-19T09:35:25.018Z,7.70
2018-07-19T09:37:53.304Z,13.60
2018-07-19T09:40:21.633Z,12.67
2018-07-19T09:42:49.967Z,11.13
2018-07-19T09:45:18.300Z,5.27
2018-07-19T09:47:46.643Z,10.33
2018-07-19T09:50:15.004Z,8.40
2018-07-19T09:52:43.583Z,5.30
2018-07-19T09:55:11.937Z,5.40
2018-07-19T09:57:40.577Z,4.37
2018-07-19T10:00:09.160Z,5.07
2018-07-19T10:02:37.461Z,10.47
2018-07-19T10:05:05.846Z,9.73
2018-07-19T10:07:34.124Z,6.73
2018-07-19T10:10:02.457Z,6.70
2018-07-19T10:12:30.768Z,10.40
2018-07-19T10:14:59.057Z,7.10
2018-07-19T10:17:27.383Z,5.33
2018-07-19T10:19:55.813Z,5.60
2018-07-19T10:22:24.055Z,3.53
2018-07-19T10:24:52.543Z,3.80
2018-07-19T10:27:20.756Z,6.40
2018-07-19T10:29:49.068Z,5.57
2018-07-19T10:32:17.438Z,5.10
2018-07-19T10:34:45.741Z,7.40
2018-07-19T10:37:14.045Z,5.73
2018-07-19T10:39:42.287Z,4.40
2018-07-19T10:42:11.020Z,4.90
2018-07-19T10:44:41.174Z,6.90
2018-07-19T10:47:09.624Z,4.57
2018-07-19T10:49:37.914Z,4.53
2018-07-19T10:52:06.306Z,4.00
2018-07-19T10:54:34.556Z,8.13
2018-07-19T10:57:02.888Z,7.93
2018-07-19T10:59:31.721Z,3.83
2018-07-19T11:02:00.085Z,4.40
2018-07-19T11:04:28.764Z,4.70
2018-07-19T11:06:57.121Z,4.57
2018-07-19T11:09:25.482Z,4.50
2018-07-19T11:11:53.901Z,7.00
2018-07-19T11:14:22.142Z,5.50
2018-07-19T11:16:50.672Z,6.13
2018-07-19T11:19:19.545Z,6.70
2018-07-19T11:21:47.923Z,4.83
2018-07-19T11:24:16.176Z,5.93
2018-07-19T11:26:44.635Z,5.80
2018-07-19T11:29:12.939Z,7.37
2018-07-19T11:31:41.367Z,8.93
2018-07-19T11:34:09.689Z,8.40
2018-07-19T11:36:38.015Z,7.00
2018-07-19T11:39:07.942Z,10.53
2018-07-19T11:41:36.690Z,11.10
2018-07-19T11:44:05.391Z,15.70
2018-07-19T11:46:33.840Z,16.30
2018-07-19T11:49:02.330Z,7.90
2018-07-19T11:51:30.730Z,5.97
2018-07-19T11:53:59.198Z,5.50
2018-07-19T11:56:27.540Z,8.33
2018-07-19T11:58:55.992Z,5.70
2018-07-19T12:01:24.414Z,7.30
2018-07-19T12:03:52.656Z,4.27
2018-07-19T12:06:21.067Z,4.17
2018-07-19T12:08:49.321Z,3.80
2018-07-19T12:11:17.949Z,4.63
2018-07-19T12:13:46.463Z,7.03
2018-07-19T12:16:14.727Z,4.33
2018-07-19T12:18:43.041Z,4.13
2018-07-19T12:21:11.339Z,3.73
2018-07-19T12:23:39.588Z,5.13
2018-07-19T12:26:08.149Z,4.00
2018-07-19T12:28:36.438Z,4.83
2018-07-19T12:31:04.728Z,3.13
2018-07-19T12:33:33.020Z,3.00
2018-07-19T12:36:01.416Z,5.13
2018-07-19T12:38:29.632Z,3.60
2018-07-19T12:40:58.251Z,4.30
2018-07-19T12:43:26.562Z,3.10
2018-07-19T12:45:55.072Z,5.80
2018-07-19T12:48:23.267Z,2.73
2018-07-19T12:50:51.546Z,4.63
2018-07-19T12:53:19.941Z,2.83
2018-07-19T12:55:48.395Z,2.30
2018-07-19T12:58:16.643Z,3.17
2018-07-19T13:00:45.162Z,3.27
2018-07-19T13:03:13.426Z,3.13
2018-07-19T13:05:41.732Z,2.87
2018-07-19T13:08:10.111Z,3.30
2018-07-19T13:10:38.381Z,2.60
2018-07-19T13:13:06.965Z,3.00
2018-07-19T13:15:35.767Z,2.83
2018-07-19T13:18:04.095Z,3.27
2018-07-19T13:20:32.444Z,3.20
2018-07-19T13:23:00.737Z,4.17
2018-07-19T13:25:29.312Z,2.60
2018-07-19T13:27:57.558Z,2.90
2018-07-19T13:30:25.880Z,2.70
2018-07-19T13:32:54.849Z,3.03
2018-07-19T13:35:23.199Z,6.00
2018-07-19T13:37:51.605Z,3.73
2018-07-19T13:40:20.772Z,2.63
2018-07-19T13:42:49.010Z,3.47
2018-07-19T13:45:18.017Z,3.10
2018-07-19T13:47:46.332Z,5.53
2018-07-19T13:50:14.666Z,3.00
2018-07-19T13:52:54.228Z,3.33
2018-07-19T13:55:22.495Z,3.00
2018-07-19T13:57:50.794Z,2.47
2018-07-19T14:00:19.105Z,3.10
2018-07-19T14:02:48.255Z,4.97
2018-07-19T14:05:16.720Z,3.37
2018-07-19T14:07:45.079Z,4.57
2018-07-19T14:10:13.378Z,3.70
2018-07-19T14:12:41.708Z,3.00
2018-07-19T14:15:09.992Z,2.87
2018-07-19T14:17:38.401Z,4.00
2018-07-19T14:20:09.039Z,2.93
2018-07-19T14:22:37.481Z,2.43
2018-07-19T14:25:05.912Z,3.07
2018-07-19T14:27:34.204Z,3.00
2018-07-19T14:30:02.554Z,3.43
2018-07-19T14:32:31.400Z,3.13
2018-07-19T14:34:59.707Z,8.00
2018-07-19T14:37:28.230Z,3.10
2018-07-19T14:39:56.540Z,3.73
2018-07-19T14:42:24.842Z,3.40
2018-07-19T14:44:53.220Z,3.47
2018-07-19T14:47:21.690Z,3.23
2018-07-19T14:49:50.068Z,2.80
2018-07-19T14:52:18.393Z,3.27
2018-07-19T14:54:46.709Z,3.43
2018-07-19T14:57:15.100Z,2.80
2018-07-19T14:59:43.387Z,2.57
2018-07-19T15:02:11.733Z,3.47
2018-07-19T15:04:40.013Z,2.93
2018-07-19T15:07:08.303Z,3.00
2018-07-19T15:09:36.564Z,9.40
2018-07-19T15:12:04.876Z,4.40
2018-07-19T15:14:33.136Z,9.63
2018-07-19T15:17:01.505Z,4.33
2018-07-19T15:19:29.808Z,4.70
2018-07-19T15:21:58.022Z,3.37
2018-07-19T15:24:26.277Z,5.10
2018-07-19T15:26:54.715Z,3.73
2018-07-19T15:29:23.004Z,3.03
2018-07-19T15:31:51.292Z,4.43
2018-07-19T15:34:19.575Z,3.47
2018-07-19T15:36:47.886Z,3.30
2018-07-19T15:39:16.092Z,3.03
2018-07-19T15:41:44.546Z,3.43
2018-07-19T15:44:12.822Z,3.07
2018-07-19T15:46:41.169Z,3.40
2018-07-19T15:49:09.510Z,3.40
2018-07-19T15:51:37.803Z,4.27
2018-07-19T15:54:06.071Z,4.53
2018-07-19T15:56:34.404Z,2.73
2018-07-19T15:59:02.785Z,3.20
2018-07-19T16:01:31.137Z,3.80
2018-07-19T16:03:59.464Z,2.93
2018-07-19T16:06:27.957Z,3.83
2018-07-19T16:08:56.271Z,3.20
2018-07-19T16:11:24.694Z,5.53
2018-07-19T16:13:53.145Z,4.00
2018-07-19T16:16:21.462Z,4.80
2018-07-19T16:18:49.847Z,4.63
2018-07-19T16:21:18.151Z,3.60
2018-07-19T16:23:46.487Z,3.70
2018-07-19T16:26:14.806Z,3.57
2018-07-19T16:28:43.044Z,4.13
2018-07-19T16:31:11.284Z,16.93
2018-07-19T16:33:39.580Z,2.90
2018-07-19T16:36:07.872Z,4.77
2018-07-19T16:38:36.226Z,3.50
2018-07-19T16:41:04.529Z,3.43
2018-07-19T16:43:32.824Z,3.67
2018-07-19T16:46:01.240Z,5.27
2018-07-19T16:48:29.504Z,3.20
2018-07-19T16:50:57.870Z,2.53
2018-07-19T16:53:26.280Z,3.70
2018-07-19T16:55:54.584Z,4.20
2018-07-19T16:58:22.997Z,3.17
2018-07-19T17:00:51.324Z,2.97
2018-07-19T17:03:19.649Z,2.93
2018-07-19T17:05:47.904Z,3.03
2018-07-19T17:08:20.968Z,3.20
2018-07-19T17:10:49.401Z,3.93
2018-07-19T17:13:17.988Z,3.37
2018-07-19T17:15:46.331Z,4.50
2018-07-19T17:18:14.598Z,2.63
2018-07-19T17:20:42.982Z,3.30
2018-07-19T17:23:11.473Z,4.00
2018-07-19T17:25:39.786Z,2.80
2018-07-19T17:28:08.075Z,5.13
2018-07-19T17:30:36.508Z,3.60
2018-07-19T17:33:05.122Z,3.40
2018-07-19T17:35:33.962Z,2.80
2018-07-19T17:38:02.351Z,4.07
2018-07-19T17:40:30.687Z,5.30
2018-07-19T17:42:58.989Z,3.10
2018-07-19T17:45:27.892Z,4.23
2018-07-19T17:47:56.390Z,3.40
2018-07-19T17:50:24.647Z,4.60
2018-07-19T17:52:52.996Z,4.63
2018-07-19T17:55:21.291Z,4.73
2018-07-19T17:57:49.579Z,9.07
2018-07-19T18:00:17.900Z,12.70
2018-07-19T18:02:46.242Z,8.67
2018-07-19T18:05:14.498Z,5.93
2018-07-19T18:07:43.397Z,7.00
2018-07-19T18:10:11.834Z,3.13
2018-07-19T18:12:40.929Z,11.17
2018-07-19T18:15:09.367Z,15.93
2018-07-19T18:17:37.721Z,5.70
2018-07-19T18:20:06.172Z,5.67
2018-07-19T18:22:34.574Z,8.47
2018-07-19T18:25:02.925Z,6.23
2018-07-19T18:27:31.272Z,11.20
2018-07-19T18:29:59.638Z,18.43
2018-07-19T18:32:28.637Z,13.30
2018-07-19T18:34:57.052Z,9.97
2018-07-19T18:37:27.611Z,18.77
2018-07-19T18:42:49.179Z,26.20
2018-07-19T18:45:17.915Z,16.90
2018-07-19T18:47:46.606Z,13.47
2018-07-19T18:50:15.272Z,11.13
2018-07-19T18:52:44.006Z,20.07
2018-07-19T18:55:12.754Z,15.60
2018-07-19T18:57:41.613Z,8.53
2018-07-19T19:00:10.440Z,15.80
2018-07-19T19:02:39.201Z,7.00
2018-07-19T19:05:08.124Z,16.17
2018-07-19T19:07:36.855Z,13.27
2018-07-19T19:10:05.579Z,11.33
2018-07-19T19:12:34.432Z,17.10
2018-07-19T19:15:03.119Z,11.40
2018-07-19T19:17:31.831Z,9.90
2018-07-19T19:20:00.545Z,11.53
2018-07-19T19:22:29.339Z,9.17
2018-07-19T19:24:58.209Z,7.17
2018-07-19T19:27:27.318Z,7.27
2018-07-19T19:29:56.017Z,6.77
2018-07-19T19:32:24.792Z,7.07
2018-07-19T19:34:53.702Z,11.73
2018-07-19T19:37:22.702Z,5.23
2018-07-19T19:39:51.446Z,10.20
2018-07-19T19:42:20.198Z,10.13
2018-07-19T19:44:48.970Z,8.70
2018-07-19T19:47:17.651Z,6.30
2018-07-19T19:49:46.328Z,8.20
2018-07-19T19:52:15.304Z,7.80
2018-07-19T19:54:44.013Z,17.13
2018-07-19T19:57:12.735Z,11.00
2018-07-19T19:59:41.410Z,19.73
2018-07-19T20:02:10.167Z,7.80
2018-07-19T20:04:38.955Z,12.23
2018-07-19T20:07:07.598Z,15.30
2018-07-19T20:09:36.255Z,14.97
2018-07-19T20:12:05.016Z,12.10
2018-07-19T20:14:33.753Z,14.40
2018-07-19T20:17:02.450Z,6.53
2018-07-19T20:19:31.195Z,9.13
2018-07-19T20:22:00.000Z,15.00
2018-07-19T20:24:28.794Z,29.97
2018-07-19T20:26:57.534Z,17.07
2018-07-19T20:29:26.321Z,8.03
2018-07-19T20:31:55.101Z,15.83
2018-07-19T20:34:23.880Z,8.80
2018-07-19T20:36:52.533Z,10.67
2018-07-19T20:39:22.017Z,8.27
2018-07-19T20:41:50.877Z,23.10
2018-07-19T20:44:19.803Z,10.67
2018-07-19T20:46:48.570Z,11.43
2018-07-19T20:49:17.280Z,9.17
2018-07-19T20:51:46.071Z,12.87
2018-07-19T20:54:14.917Z,9.73
2018-07-19T20:59:25.410Z,10.97
2018-07-19T21:01:54.113Z,16.73
2018-07-19T21:04:27.171Z,10.50
2018-07-19T21:06:55.896Z,10.23
2018-07-19T21:09:25.475Z,12.00
2018-07-19T21:11:55.229Z,14.47
2018-07-19T21:14:24.058Z,9.03
2018-07-19T21:16:52.810Z,7.80
2018-07-19T21:19:21.562Z,7.17
2018-07-19T21:21:50.257Z,7.47
2018-07-19T21:24:18.956Z,7.33
2018-07-19T21:26:47.720Z,6.83
2018-07-19T21:29:16.455Z,5.73
2018-07-19T21:31:45.280Z,7.97
2018-07-19T21:34:13.944Z,9.00
2018-07-19T21:36:42.569Z,9.43
2018-07-19T21:39:11.948Z,7.43
2018-07-19T21:41:41.099Z,11.57
2018-07-19T21:44:10.683Z,10.90
2018-07-19T21:46:39.383Z,10.33
2018-07-19T21:49:08.076Z,10.97
2018-07-19T21:51:36.891Z,9.23
2018-07-19T21:54:05.546Z,6.80
2018-07-19T21:56:34.351Z,10.63
2018-07-19T21:59:03.152Z,6.70
2018-07-19T22:01:31.978Z,9.00
2018-07-19T22:04:00.722Z,10.00
2018-07-19T22:06:29.476Z,8.90
2018-07-19T22:08:58.149Z,6.63
2018-07-19T22:11:26.926Z,6.30
2018-07-19T22:13:55.628Z,9.90
2018-07-19T22:16:24.290Z,8.63
2018-07-19T22:18:52.998Z,6.60
2018-07-19T22:21:21.859Z,5.73
2018-07-19T22:23:50.602Z,7.73
2018-07-19T22:26:20.667Z,9.10
2018-07-19T22:28:51.916Z,5.47
2018-07-19T22:31:21.009Z,11.90
2018-07-19T22:33:50.221Z,12.97
2018-07-19T22:36:19.118Z,6.37
2018-07-19T22:38:48.151Z,7.00
2018-07-19T22:41:17.174Z,9.53
2018-07-19T22:43:46.005Z,7.33
2018-07-19T22:46:14.699Z,9.43
2018-07-19T22:48:43.503Z,8.20
2018-07-19T22:51:12.296Z,8.30
2018-07-19T22:53:41.087Z,6.90
2018-07-19T22:56:17.979Z,10.50
2018-07-19T22:58:46.829Z,8.17
2018-07-19T23:01:15.777Z,7.60
2018-07-19T23:03:55.994Z,8.00
2018-07-19T23:06:50.857Z,7.80
2018-07-19T23:12:26.383Z,7.73
2018-07-19T23:15:05.514Z,8.77
2018-07-19T23:17:49.055Z,6.67
2018-07-19T23:20:36.659Z,5.77
2018-07-19T23:26:10.030Z,8.47
2018-07-19T23:28:49.058Z,7.43
2018-07-19T23:34:30.441Z,7.80
2018-07-19T23:37:21.987Z,7.93
2018-07-19T23:40:10.225Z,8.50
2018-07-19T23:42:57.946Z,7.97
2018-07-19T23:46:54.710Z,7.13
2018-07-19T23:49:41.827Z,7.00
2018-07-19T23:52:20.729Z,14.73
2018-07-19T23:55:08.287Z,8.57
2018-07-19T23:57:55.193Z,10.40
